createdAt,value
2019-04-20T00:00:44.061Z,102114.83
2019-04-20T00:03:09.596Z,102120.80
2019-04-20T00:05:39.219Z,102115.69
2019-04-20T00:08:15.866Z,102114.02
2019-04-20T00:10:47.613Z,102114.02
2019-04-20T00:13:22.948Z,102115.84
2019-04-20T00:15:40.663Z,102112.83
2019-04-20T00:18:11.426Z,102106.87
2019-04-20T00:20:51.455Z,102111.33
2019-04-20T00:23:28.806Z,102108.77
2019-04-20T00:26:24.944Z,102111.33
2019-04-20T00:29:06.925Z,102108.05
2019-04-20T00:31:30.310Z,102101.62
2019-04-20T00:33:56.291Z,102102.94
2019-04-20T00:36:18.045Z,102101.83
2019-04-20T00:38:53.049Z,102100.35
2019-04-20T00:41:20.335Z,102097.47
2019-04-20T00:43:49.155Z,102095.44
2019-04-20T00:46:28.079Z,102095.17
2019-04-20T00:48:59.478Z,102089.94
2019-04-20T00:51:35.155Z,102093.59
2019-04-20T00:53:56.872Z,102090.70
2019-04-20T00:56:24.347Z,102097.73
2019-04-20T00:59:09.196Z,102095.69
2019-04-20T01:01:42.435Z,102097.30
2019-04-20T01:04:14.862Z,102096.10
2019-04-20T01:07:00.135Z,102096.86
2019-04-20T01:09:19.981Z,102096.08
2019-04-20T01:11:50.131Z,102101.67
2019-04-20T01:14:27.280Z,102099.08
2019-04-20T01:16:58.180Z,102104.70
2019-04-20T01:19:20.618Z,102099.45
2019-04-20T01:21:58.192Z,102100.29
2019-04-20T01:24:27.510Z,102101.39
2019-04-20T01:26:54.861Z,102099.75
2019-04-20T01:29:30.188Z,102098.64
2019-04-20T01:32:06.150Z,102095.27
2019-04-20T01:34:37.897Z,102108.98
2019-04-20T01:37:09.547Z,102109.02
2019-04-20T01:39:31.920Z,102101.37
2019-04-20T01:41:54.024Z,102105.16
2019-04-20T01:44:27.012Z,102110.02
2019-04-20T01:46:58.706Z,102111.70
2019-04-20T01:49:27.464Z,102110.73
2019-04-20T01:52:04.903Z,102107.39
2019-04-20T01:54:48.464Z,102112.39
2019-04-20T01:57:08.265Z,102106.41
2019-04-20T01:59:46.003Z,102109.86
2019-04-20T02:02:43.746Z,102120.11
2019-04-20T02:05:16.664Z,102113.53
2019-04-20T02:07:44.557Z,102115.45
2019-04-20T02:10:14.827Z,102110.99
2019-04-20T02:12:47.544Z,102115.00
2019-04-20T02:15:25.678Z,102116.66
2019-04-20T02:17:57.891Z,102117.35
2019-04-20T02:20:33.010Z,102124.19
2019-04-20T02:23:01.847Z,102122.72
2019-04-20T02:25:16.321Z,102120.19
2019-04-20T02:27:50.276Z,102129.48
2019-04-20T02:33:36.192Z,102126.14
2019-04-20T02:41:47.634Z,102132.45
2019-04-20T02:44:14.719Z,102134.17
2019-04-20T02:49:26.189Z,102131.33
2019-04-20T02:51:47.601Z,102134.78
2019-04-20T02:56:49.879Z,102134.58
2019-04-20T02:59:47.545Z,102132.39
2019-04-20T03:01:36.154Z,102132.00
2019-04-20T03:03:52.698Z,102131.82
2019-04-20T03:06:30.755Z,102128.19
2019-04-20T03:09:10.067Z,102125.27
2019-04-20T03:11:50.012Z,102129.95
2019-04-20T03:14:10.677Z,102125.06
2019-04-20T03:16:35.809Z,102127.86
2019-04-20T03:19:08.097Z,102129.08
2019-04-20T03:21:44.766Z,102124.48
2019-04-20T03:24:18.867Z,102127.39
2019-04-20T03:26:54.641Z,102123.22
2019-04-20T03:29:54.594Z,102125.11
2019-04-20T03:35:05.311Z,102127.59
2019-04-20T03:37:30.724Z,102132.21
2019-04-20T03:39:52.621Z,102126.34
2019-04-20T03:42:07.523Z,102128.44
2019-04-20T03:44:38.889Z,102124.54
2019-04-20T03:47:11.571Z,102127.63
2019-04-20T03:50:00.991Z,102129.32
2019-04-20T03:52:40.362Z,102135.99
2019-04-20T03:55:16.216Z,102132.55
2019-04-20T03:58:03.395Z,102134.81
2019-04-20T04:00:50.429Z,102141.38
2019-04-20T04:03:47.219Z,102140.17
2019-04-20T04:06:11.731Z,102131.89
2019-04-20T04:08:35.817Z,102134.10
2019-04-20T04:11:17.552Z,102134.76
2019-04-20T04:13:29.091Z,102133.94
2019-04-20T04:16:04.421Z,102135.41
2019-04-20T04:18:35.427Z,102135.45
2019-04-20T04:21:03.916Z,102131.64
2019-04-20T04:23:47.110Z,102133.37
2019-04-20T04:26:20.368Z,102140.02
2019-04-20T04:28:47.527Z,102138.62
2019-04-20T04:31:22.971Z,102140.39
2019-04-20T04:33:55.920Z,102148.84
2019-04-20T04:36:18.172Z,102137.80
2019-04-20T04:39:11.188Z,102147.69
2019-04-20T04:41:36.431Z,102151.55
2019-04-20T04:43:54.213Z,102151.41
2019-04-20T04:46:05.825Z,102155.64
2019-04-20T04:48:40.318Z,102150.37
2019-04-20T04:51:12.855Z,102159.30
2019-04-20T04:53:45.252Z,102159.17
2019-04-20T04:56:11.681Z,102158.02
2019-04-20T04:58:36.485Z,102155.51
2019-04-20T05:01:12.697Z,102154.80
2019-04-20T05:03:54.002Z,102161.39
2019-04-20T05:06:31.802Z,102162.34
2019-04-20T05:08:52.416Z,102165.11
2019-04-20T05:11:17.330Z,102165.19
2019-04-20T05:13:52.849Z,102169.67
2019-04-20T05:16:38.523Z,102165.56
2019-04-20T05:21:56.432Z,102173.86
2019-04-20T05:24:26.892Z,102171.28
2019-04-20T05:27:20.891Z,102177.92
2019-04-20T05:29:31.863Z,102175.00
2019-04-20T05:32:05.987Z,102180.11
2019-04-20T05:34:52.357Z,102180.79
2019-04-20T05:37:29.713Z,102178.04
2019-04-20T05:39:50.462Z,102181.01
2019-04-20T05:42:23.386Z,102176.36
2019-04-20T05:44:56.506Z,102176.01
2019-04-20T05:47:26.991Z,102175.03
2019-04-20T05:49:56.131Z,102169.37
2019-04-20T05:52:39.110Z,102171.50
2019-04-20T05:54:57.653Z,102174.29
2019-04-20T05:57:31.965Z,102173.31
2019-04-20T06:00:06.835Z,102183.52
2019-04-20T06:02:32.266Z,102184.66
2019-04-20T06:05:06.942Z,102185.58
2019-04-20T06:07:31.127Z,102178.49
2019-04-20T06:10:05.981Z,102180.33
2019-04-20T06:12:35.802Z,102179.33
2019-04-20T06:15:11.867Z,102179.03
2019-04-20T06:18:16.571Z,102179.23
2019-04-20T06:21:09.371Z,102175.09
2019-04-20T06:23:44.489Z,102178.70
2019-04-20T06:26:35.158Z,102177.89
2019-04-20T06:28:35.330Z,102179.38
2019-04-20T06:31:14.931Z,102187.20
2019-04-20T06:34:27.682Z,102184.76
2019-04-20T06:36:48.157Z,102184.00
2019-04-20T06:39:16.177Z,102185.83
2019-04-20T06:44:23.023Z,102188.73
2019-04-20T06:46:52.456Z,102191.34
2019-04-20T06:49:22.685Z,102190.91
2019-04-20T06:51:53.165Z,102191.05
2019-04-20T06:54:17.346Z,102189.53
2019-04-20T06:57:00.217Z,102188.80
2019-04-20T06:59:31.823Z,102195.27
2019-04-20T07:02:10.073Z,102190.28
2019-04-20T07:09:42.045Z,102196.52
2019-04-20T07:12:01.505Z,102196.77
2019-04-20T07:14:25.979Z,102189.69
2019-04-20T07:17:34.994Z,102195.81
2019-04-20T07:19:50.423Z,102192.55
2019-04-20T07:22:54.321Z,102195.48
2019-04-20T07:25:02.485Z,102194.61
2019-04-20T07:27:33.056Z,102194.71
2019-04-20T07:30:04.067Z,102194.62
2019-04-20T07:32:41.832Z,102204.68
2019-04-20T07:35:01.535Z,102199.64
2019-04-20T07:40:25.786Z,102194.15
2019-04-20T07:42:55.189Z,102190.33
2019-04-20T07:45:29.543Z,102189.36
2019-04-20T07:48:01.354Z,102181.40
2019-04-20T07:50:21.761Z,102181.40
2019-04-20T07:52:46.193Z,102186.88
2019-04-20T07:57:53.780Z,102184.94
2019-04-20T08:00:44.231Z,102188.42
2019-04-20T08:03:29.677Z,102182.76
2019-04-20T08:06:05.333Z,102185.02
2019-04-20T08:08:43.782Z,102181.67
2019-04-20T08:11:14.142Z,102179.97
2019-04-20T08:13:53.983Z,102173.11
2019-04-20T08:16:24.300Z,102175.35
2019-04-20T08:18:49.883Z,102178.31
2019-04-20T08:21:22.845Z,102176.46
2019-04-20T08:23:48.947Z,102175.61
2019-04-20T08:26:08.787Z,102173.12
2019-04-20T08:28:46.595Z,102173.95
2019-04-20T08:32:04.807Z,102174.56
2019-04-20T08:34:39.723Z,102168.70
2019-04-20T08:37:01.391Z,102168.00
2019-04-20T08:39:46.933Z,102177.28
2019-04-20T08:42:06.335Z,102167.30
2019-04-20T08:47:32.269Z,102170.94
2019-04-20T08:50:03.531Z,102168.11
2019-04-20T08:52:47.112Z,102164.58
2019-04-20T08:55:02.464Z,102166.52
2019-04-20T08:57:13.377Z,102162.25
2019-04-20T08:59:47.037Z,102164.84
2019-04-20T09:02:18.405Z,102165.94
2019-04-20T09:04:54.074Z,102168.94
2019-04-20T09:07:23.262Z,102160.48
2019-04-20T09:10:16.446Z,102159.76
2019-04-20T09:12:36.860Z,102163.06
2019-04-20T09:14:51.266Z,102157.23
2019-04-20T09:17:39.732Z,102164.69
2019-04-20T09:20:13.803Z,102156.39
2019-04-20T09:22:49.119Z,102158.76
2019-04-20T09:28:30.887Z,102155.30
2019-04-20T09:31:18.557Z,102158.12
2019-04-20T09:34:07.446Z,102159.36
2019-04-20T09:36:40.799Z,102160.52
2019-04-20T09:39:29.577Z,102154.45
2019-04-20T09:42:01.083Z,102162.78
2019-04-20T09:44:31.517Z,102158.66
2019-04-20T09:47:00.299Z,102158.55
2019-04-20T09:49:41.408Z,102154.56
2019-04-20T09:52:14.565Z,102155.20
2019-04-20T09:54:48.238Z,102155.08
2019-04-20T09:57:22.608Z,102152.53
2019-04-20T09:59:50.054Z,102155.11
2019-04-20T10:02:07.839Z,102145.37
2019-04-20T10:04:31.676Z,102146.95
2019-04-20T10:07:07.957Z,102147.42
2019-04-20T10:09:37.499Z,102144.02
2019-04-20T10:12:01.745Z,102143.59
2019-04-20T10:14:31.027Z,102136.14
2019-04-20T10:17:00.102Z,102131.84
2019-04-20T10:19:33.686Z,102135.55
2019-04-20T10:22:00.395Z,102141.53
2019-04-20T10:24:30.522Z,102141.06
2019-04-20T10:26:59.241Z,102137.73
2019-04-20T10:29:27.980Z,102129.88
2019-04-20T10:31:59.282Z,102123.72
2019-04-20T10:34:28.370Z,102129.41
2019-04-20T10:37:17.602Z,102130.16
2019-04-20T10:39:46.832Z,102123.59
2019-04-20T10:42:16.297Z,102120.80
2019-04-20T10:44:45.177Z,102114.80
2019-04-20T10:47:14.709Z,102121.27
2019-04-20T10:49:44.934Z,102117.56
2019-04-20T10:52:13.764Z,102120.94
2019-04-20T10:54:42.720Z,102119.27
2019-04-20T10:57:11.566Z,102116.55
2019-04-20T10:59:41.454Z,102114.58
2019-04-20T11:02:10.095Z,102117.14
2019-04-20T11:04:38.826Z,102111.41
2019-04-20T11:07:08.295Z,102108.56
2019-04-20T11:09:36.956Z,102110.77
2019-04-20T11:12:06.338Z,102111.17
2019-04-20T11:14:38.748Z,102101.72
2019-04-20T11:17:06.643Z,102103.16
2019-04-20T11:19:35.308Z,102100.02
2019-04-20T11:22:04.326Z,102094.95
2019-04-20T11:24:34.369Z,102092.89
2019-04-20T11:27:04.514Z,102096.16
2019-04-20T11:29:33.912Z,102093.12
2019-04-20T11:32:03.107Z,102087.69
2019-04-20T11:34:35.215Z,102075.20
2019-04-20T11:37:03.400Z,102077.58
2019-04-20T11:39:32.897Z,102080.75
2019-04-20T11:42:01.675Z,102071.77
2019-04-20T11:44:31.617Z,102065.53
2019-04-20T11:47:00.903Z,102060.60
2019-04-20T11:49:31.216Z,102063.94
2019-04-20T11:51:59.883Z,102056.86
2019-04-20T11:54:28.429Z,102057.06
2019-04-20T11:56:57.442Z,102053.28
2019-04-20T11:59:27.390Z,102061.13
2019-04-20T12:02:30.321Z,102052.72
2019-04-20T12:05:10.044Z,102048.62
2019-04-20T12:07:33.705Z,102040.36
2019-04-20T12:10:08.162Z,102041.93
2019-04-20T12:12:39.009Z,102043.16
2019-04-20T12:15:02.604Z,102036.32
2019-04-20T12:17:31.436Z,102024.01
2019-04-20T12:20:00.144Z,102025.08
2019-04-20T12:22:28.735Z,102028.25
2019-04-20T12:24:58.195Z,102026.73
2019-04-20T12:27:27.004Z,102029.35
2019-04-20T12:29:55.536Z,102029.03
2019-04-20T12:32:27.081Z,102030.53
2019-04-20T12:34:56.038Z,102019.44
2019-04-20T12:37:25.095Z,102013.69
2019-04-20T12:39:53.740Z,102023.47
2019-04-20T12:42:23.111Z,102005.88
2019-04-20T12:44:53.356Z,102006.84
2019-04-20T12:47:22.164Z,102023.10
2019-04-20T12:49:51.633Z,102002.53
2019-04-20T12:52:20.731Z,102003.15
2019-04-20T12:54:50.439Z,101999.43
2019-04-20T12:57:20.594Z,102004.72
2019-04-20T12:59:50.736Z,102003.31
2019-04-20T13:02:20.102Z,101995.34
2019-04-20T13:04:49.144Z,102005.97
2019-04-20T13:07:17.887Z,101997.05
2019-04-20T13:09:50.735Z,101998.14
2019-04-20T13:12:30.349Z,101986.06
2019-04-20T13:15:28.776Z,101978.63
2019-04-20T13:17:57.416Z,101972.09
2019-04-20T13:20:26.058Z,101972.94
2019-04-20T13:22:55.041Z,101987.09
2019-04-20T13:25:23.717Z,101968.13
2019-04-20T13:27:52.766Z,101965.18
2019-04-20T13:30:21.795Z,101971.34
2019-04-20T13:32:50.390Z,101968.89
2019-04-20T13:35:20.464Z,101963.98
2019-04-20T13:37:50.000Z,101956.23
2019-04-20T13:40:19.698Z,101966.84
2019-04-20T13:42:49.795Z,101948.41
2019-04-20T13:45:19.217Z,101954.73
2019-04-20T13:47:48.701Z,101943.41
2019-04-20T13:50:19.965Z,101947.10
2019-04-20T13:52:48.965Z,101941.13
2019-04-20T13:55:18.803Z,101943.58
2019-04-20T13:58:04.215Z,101946.32
2019-04-20T14:00:42.907Z,101940.83
2019-04-20T14:03:11.527Z,101940.98
2019-04-20T14:05:40.544Z,101940.68
2019-04-20T14:08:09.875Z,101931.30
2019-04-20T14:10:39.707Z,101921.69
2019-04-20T14:13:13.612Z,101923.43
2019-04-20T14:15:39.115Z,101921.22
2019-04-20T14:18:08.973Z,101927.91
2019-04-20T14:20:38.183Z,101923.78
2019-04-20T14:23:07.385Z,101920.28
2019-04-20T14:25:36.757Z,101908.27
2019-04-20T14:28:05.416Z,101912.80
2019-04-20T14:30:35.135Z,101910.45
2019-04-20T14:33:05.224Z,101910.66
2019-04-20T14:35:34.655Z,101914.45
2019-04-20T14:38:03.866Z,101919.02
2019-04-20T14:40:32.643Z,101907.30
2019-04-20T14:43:01.686Z,101907.80
2019-04-20T14:45:30.474Z,101907.00
2019-04-20T14:47:59.559Z,101905.31
2019-04-20T14:50:29.718Z,101900.37
2019-04-20T14:52:59.684Z,101897.31
2019-04-20T14:55:29.256Z,101903.98
2019-04-20T14:58:02.020Z,101893.69
2019-04-20T15:00:53.057Z,101889.23
2019-04-20T15:03:49.949Z,101890.64
2019-04-20T15:06:17.899Z,101898.88
2019-04-20T15:08:46.561Z,101883.92
2019-04-20T15:11:15.236Z,101879.48
2019-04-20T15:13:44.744Z,101879.98
2019-04-20T15:16:14.899Z,101883.25
2019-04-20T15:19:07.543Z,101883.27
2019-04-20T15:21:37.705Z,101876.77
2019-04-20T15:24:06.416Z,101870.89
2019-04-20T15:26:36.190Z,101878.64
2019-04-20T15:29:06.354Z,101879.89
2019-04-20T15:31:36.409Z,101874.37
2019-04-20T15:34:05.170Z,101873.80
2019-04-20T15:36:34.316Z,101873.89
2019-04-20T15:39:05.479Z,101866.16
2019-04-20T15:41:35.730Z,101871.10
2019-04-20T15:44:04.515Z,101869.53
2019-04-20T15:46:34.657Z,101872.22
2019-04-20T15:49:06.115Z,101862.55
2019-04-20T15:51:34.870Z,101870.52
2019-04-20T15:54:03.551Z,101867.67
2019-04-20T15:56:33.277Z,101865.59
2019-04-20T15:59:02.343Z,101862.27
2019-04-20T16:01:36.601Z,101869.61
2019-04-20T16:04:20.754Z,101864.72
2019-04-20T16:06:41.479Z,101863.28
2019-04-20T16:09:10.484Z,101864.58
2019-04-20T16:11:39.313Z,101860.80
2019-04-20T16:14:09.058Z,101855.22
2019-04-20T16:16:37.696Z,101861.33
2019-04-20T16:19:14.707Z,101852.30
2019-04-20T16:21:37.487Z,101861.32
2019-04-20T16:24:15.114Z,101854.30
2019-04-20T16:27:09.665Z,101860.28
2019-04-20T16:29:39.697Z,101861.77
2019-04-20T16:32:08.919Z,101865.31
2019-04-20T16:34:38.401Z,101859.20
2019-04-20T16:37:08.605Z,101848.84
2019-04-20T16:39:38.561Z,101850.36
2019-04-20T16:42:09.302Z,101852.28
2019-04-20T16:44:38.943Z,101845.94
2019-04-20T16:47:08.037Z,101848.84
2019-04-20T16:49:37.055Z,101836.47
2019-04-20T16:52:07.244Z,101839.64
2019-04-20T16:54:36.121Z,101839.17
2019-04-20T16:57:06.457Z,101827.78
2019-04-20T16:59:40.182Z,101834.39
2019-04-20T17:02:06.653Z,101840.81
2019-04-20T17:04:35.689Z,101846.22
2019-04-20T17:07:42.806Z,101839.60
2019-04-20T17:10:14.176Z,101836.56
2019-04-20T17:12:43.849Z,101832.34
2019-04-20T17:15:14.060Z,101826.70
2019-04-20T17:17:43.348Z,101830.27
2019-04-20T17:20:13.711Z,101837.14
2019-04-20T17:22:42.540Z,101831.20
2019-04-20T17:25:14.194Z,101827.69
2019-04-20T17:27:49.147Z,101830.95
2019-04-20T17:30:42.188Z,101829.47
2019-04-20T17:33:13.870Z,101831.79
2019-04-20T17:35:53.196Z,101834.39
2019-04-20T17:38:14.361Z,101834.38
2019-04-20T17:41:01.309Z,101836.02
2019-04-20T17:43:22.091Z,101834.09
2019-04-20T17:45:54.326Z,101830.97
2019-04-20T17:48:29.695Z,101830.97
2019-04-20T17:51:06.629Z,101840.07
2019-04-20T17:53:57.744Z,101836.50
2019-04-20T17:56:22.205Z,101841.46
2019-04-20T17:58:52.163Z,101846.90
2019-04-20T18:02:00.392Z,101844.23
2019-04-20T18:04:51.972Z,101838.46
2019-04-20T18:06:57.932Z,101843.61
2019-04-20T18:09:39.929Z,101842.09
2019-04-20T18:11:53.739Z,101851.73
2019-04-20T18:14:37.445Z,101852.30
2019-04-20T18:17:10.159Z,101850.80
2019-04-20T18:19:42.798Z,101845.55
2019-04-20T18:22:11.950Z,101852.00
2019-04-20T18:25:02.704Z,101857.56
2019-04-20T18:27:36.252Z,101848.48
2019-04-20T18:30:04.032Z,101853.38
2019-04-20T18:32:23.616Z,101849.78
2019-04-20T18:34:59.191Z,101852.12
2019-04-20T18:37:26.868Z,101847.58
2019-04-20T18:40:03.101Z,101848.64
2019-04-20T18:42:34.341Z,101856.61
2019-04-20T18:45:17.282Z,101853.98
2019-04-20T18:47:46.926Z,101855.16
2019-04-20T18:50:08.514Z,101848.98
2019-04-20T18:52:29.518Z,101850.97
2019-04-20T18:54:59.384Z,101855.27
2019-04-20T18:57:29.642Z,101855.47
2019-04-20T19:00:00.593Z,101857.14
2019-04-20T19:02:33.449Z,101857.30
2019-04-20T19:05:02.115Z,101854.84
2019-04-20T19:07:34.862Z,101857.78
2019-04-20T19:10:13.870Z,101866.02
2019-04-20T19:12:41.494Z,101869.86
2019-04-20T19:15:47.881Z,101863.53
2019-04-20T19:18:15.686Z,101868.33
2019-04-20T19:20:39.129Z,101875.72
2019-04-20T19:23:08.405Z,101874.00
2019-04-20T19:25:40.345Z,101871.76
2019-04-20T19:28:08.860Z,101871.82
2019-04-20T19:30:49.568Z,101871.79
2019-04-20T19:33:22.717Z,101870.44
2019-04-20T19:35:50.167Z,101871.84
2019-04-20T19:38:18.626Z,101872.72
2019-04-20T19:40:51.539Z,101879.83
2019-04-20T19:43:22.069Z,101878.12
2019-04-20T19:46:16.722Z,101882.94
2019-04-20T19:48:27.899Z,101884.07
2019-04-20T19:51:05.870Z,101882.95
2019-04-20T19:53:31.857Z,101882.11
2019-04-20T19:56:00.079Z,101877.02
2019-04-20T19:58:28.097Z,101886.36
2019-04-20T20:00:51.353Z,101885.53
2019-04-20T20:03:17.958Z,101876.55
2019-04-20T20:05:49.943Z,101878.49
2019-04-20T20:08:23.027Z,101884.14
2019-04-20T20:10:48.436Z,101885.27
2019-04-20T20:13:18.256Z,101877.41
2019-04-20T20:15:47.059Z,101885.61
2019-04-20T20:18:33.391Z,101879.68
2019-04-20T20:21:01.082Z,101881.11
2019-04-20T20:23:18.167Z,101880.58
2019-04-20T20:25:49.636Z,101874.37
2019-04-20T20:28:30.808Z,101881.11
2019-04-20T20:30:56.836Z,101877.44
2019-04-20T20:33:35.258Z,101877.99
2019-04-20T20:35:58.348Z,101879.12
2019-04-20T20:38:28.034Z,101877.44
2019-04-20T20:40:58.952Z,101866.76
2019-04-20T20:43:34.413Z,101886.40
2019-04-20T20:46:05.263Z,101877.98
2019-04-20T20:48:35.648Z,101893.14
2019-04-20T20:51:09.782Z,101895.68
2019-04-20T20:53:41.938Z,101883.88
2019-04-20T20:56:06.625Z,101892.84
2019-04-20T20:58:40.183Z,101889.71
2019-04-20T21:01:04.366Z,101878.73
2019-04-20T21:03:32.299Z,101890.52
2019-04-20T21:05:57.885Z,101885.17
2019-04-20T21:08:26.732Z,101886.84
2019-04-20T21:10:56.540Z,101885.42
2019-04-20T21:13:33.286Z,101885.66
2019-04-20T21:16:02.527Z,101890.47
2019-04-20T21:18:49.106Z,101886.27
2019-04-20T21:21:11.713Z,101883.98
2019-04-20T21:23:37.026Z,101888.11
2019-04-20T21:26:12.673Z,101881.31
2019-04-20T21:28:39.818Z,101882.13
2019-04-20T21:31:16.258Z,101876.53
2019-04-20T21:33:40.576Z,101875.18
2019-04-20T21:36:13.497Z,101878.22
2019-04-20T21:38:42.490Z,101877.64
2019-04-20T21:41:15.002Z,101880.70
2019-04-20T21:43:44.392Z,101883.70
2019-04-20T21:46:13.887Z,101880.67
2019-04-20T21:48:55.950Z,101881.46
2019-04-20T21:51:25.715Z,101881.68
2019-04-20T21:53:44.319Z,101877.97
2019-04-20T21:56:13.127Z,101876.01
2019-04-20T21:58:49.446Z,101875.76
2019-04-20T22:01:24.260Z,101881.31
2019-04-20T22:03:44.731Z,101872.67
2019-04-20T22:06:14.146Z,101875.28
2019-04-20T22:08:45.930Z,101878.68
2019-04-20T22:11:13.683Z,101869.00
2019-04-20T22:13:44.566Z,101869.44
2019-04-20T22:16:14.740Z,101872.20
2019-04-20T22:18:54.017Z,101866.44
2019-04-20T22:21:22.762Z,101865.36
2019-04-20T22:24:01.822Z,101865.13
2019-04-20T22:26:25.340Z,101860.08
2019-04-20T22:28:47.943Z,101866.48
2019-04-20T22:31:18.197Z,101865.97
2019-04-20T22:33:48.708Z,101860.47
2019-04-20T22:36:18.222Z,101868.02
2019-04-20T22:39:07.582Z,101858.73
2019-04-20T22:41:45.744Z,101855.33
2019-04-20T22:44:15.127Z,101856.77
2019-04-20T22:46:44.101Z,101854.23
2019-04-20T22:49:32.960Z,101855.03
2019-04-20T22:51:53.189Z,101852.95
2019-04-20T22:54:27.902Z,101859.52
2019-04-20T22:56:58.567Z,101844.52
2019-04-20T22:59:21.119Z,101855.59
2019-04-20T23:01:52.078Z,101846.47
2019-04-20T23:04:17.058Z,101841.09
2019-04-20T23:06:49.767Z,101838.91
2019-04-20T23:09:16.861Z,101847.47
2019-04-20T23:11:45.524Z,101835.77
2019-04-20T23:14:14.408Z,101830.57
2019-04-20T23:16:48.658Z,101830.78
2019-04-20T23:19:14.222Z,101821.11
2019-04-20T23:21:48.718Z,101818.31
2019-04-20T23:24:15.339Z,101820.53
2019-04-20T23:26:46.902Z,101813.97
2019-04-20T23:29:15.394Z,101814.48
2019-04-20T23:31:50.524Z,101808.23
2019-04-20T23:34:20.135Z,101805.14
2019-04-20T23:36:48.815Z,101806.37
2019-04-20T23:39:17.019Z,101796.25
2019-04-20T23:41:53.743Z,101792.63
2019-04-20T23:44:29.402Z,101795.53
2019-04-20T23:47:17.152Z,101789.31
2019-04-20T23:50:03.960Z,101785.27
2019-04-20T23:52:43.106Z,101788.53
2019-04-20T23:54:58.113Z,101784.89
2019-04-20T23:57:21.867Z,101779.81
2019-04-20T23:59:52.012Z,101782.80
